WIMM/MES METAR and TAF weather

Enter ICAO airport designator
Station Type Date Time Source
WIMM METAR 2019/07/16 00:00 UTC NOAA

WIMM 160000Z 18006KT 6000 SCT017 26/25 Q1008 NOSIG


Station Type Date Time Source
WIMM Decoded METAR 2019/07/16 00:00 UTC NOAA

Medan / Polonia, Indonesia (WIMM) 03-34N 098-41E 25M
Jul 15, 2019 - 08:00 PM EDT / 2019.07.16 0000 UTC
Wind: from the S (180 degrees) at 7 MPH (6 KT):0
Visibility: 3 mile(s):0
Sky conditions: partly cloudy
Temperature: 78 F (26 C)
Dew Point: 77 F (25 C)
Relative Humidity: 94%
Pressure (altimeter): 29.77 in. Hg (1008 hPa)
ob: WIMM 160000Z 18006KT 6000 SCT017 26/25 Q1008 NOSIG
cycle: 0

Station Type Date Time Source
WIMM TAF 2019/07/17 18:21 UTC NOAA

TAF TAF WIMM 171700Z 1718/1818 VRB08KT 6000 SCT018
BECMG 1801/1802 12005KT 8000

Example: see airport list